createdAt,value
2018-11-23T00:00:33.426Z,1.90
2018-11-23T00:03:01.814Z,1.90
2018-11-23T00:05:30.005Z,1.80
2018-11-23T00:07:58.849Z,1.80
2018-11-23T00:10:28.338Z,1.90
2018-11-23T00:12:56.538Z,1.90
2018-11-23T00:15:31.322Z,1.90
2018-11-23T00:17:59.547Z,1.90
2018-11-23T00:20:28.821Z,1.90
2018-11-23T00:22:57.010Z,1.80
2018-11-23T00:25:26.106Z,1.80
2018-11-23T00:27:54.881Z,1.80
2018-11-23T00:30:24.379Z,1.70
2018-11-23T00:32:52.950Z,1.60
2018-11-23T00:35:22.373Z,1.60
2018-11-23T00:37:51.155Z,1.60
2018-11-23T00:40:24.770Z,1.50
2018-11-23T00:42:53.235Z,1.50
2018-11-23T00:45:21.626Z,1.60
2018-11-23T00:47:50.514Z,1.60
2018-11-23T00:50:19.910Z,1.50
2018-11-23T00:52:48.459Z,1.50
2018-11-23T00:55:17.887Z,1.40
2018-11-23T00:57:46.038Z,1.40
2018-11-23T01:00:16.889Z,1.50
2018-11-23T01:02:45.386Z,1.40
2018-11-23T01:05:15.021Z,1.50
2018-11-23T01:07:43.640Z,1.40
2018-11-23T01:10:13.650Z,1.40
2018-11-23T01:12:42.370Z,1.30
2018-11-23T01:15:11.262Z,1.30
2018-11-23T01:17:39.430Z,1.30
2018-11-23T01:20:09.659Z,1.20
2018-11-23T01:22:38.226Z,1.10
2018-11-23T01:25:07.605Z,1.10
2018-11-23T01:27:35.791Z,1.10
2018-11-23T01:30:03.974Z,1.10
2018-11-23T01:32:32.146Z,1.10
2018-11-23T01:35:00.335Z,1.10
2018-11-23T01:37:28.506Z,1.10
2018-11-23T01:39:56.642Z,1.10
2018-11-23T01:42:24.819Z,1.10
2018-11-23T01:44:53.089Z,1.00
2018-11-23T01:47:22.418Z,1.00
2018-11-23T01:49:50.801Z,1.00
2018-11-23T01:52:18.978Z,0.90
2018-11-23T01:54:47.133Z,0.90
2018-11-23T01:57:15.285Z,0.80
2018-11-23T01:59:43.404Z,0.80
2018-11-23T02:02:11.577Z,0.70
2018-11-23T02:04:39.785Z,0.70
2018-11-23T02:07:08.247Z,0.70
2018-11-23T02:09:36.390Z,0.80
2018-11-23T02:12:04.582Z,0.80
2018-11-23T02:14:32.785Z,0.70
2018-11-23T02:17:01.074Z,0.70
2018-11-23T02:19:29.277Z,0.70
2018-11-23T02:21:57.428Z,0.60
2018-11-23T02:24:25.786Z,0.60
2018-11-23T02:26:53.954Z,0.70
2018-11-23T02:29:22.163Z,0.70
2018-11-23T02:31:50.354Z,0.70
2018-11-23T02:34:18.502Z,0.60
2018-11-23T02:36:46.898Z,0.60
2018-11-23T02:39:15.067Z,0.60
2018-11-23T02:41:43.210Z,0.60
2018-11-23T02:44:11.418Z,0.60
2018-11-23T02:46:39.542Z,0.60
2018-11-23T02:49:07.728Z,0.50
2018-11-23T02:51:35.893Z,0.60
2018-11-23T02:54:04.074Z,0.60
2018-11-23T02:56:39.682Z,0.50
2018-11-23T02:59:07.850Z,0.50
2018-11-23T03:01:36.023Z,0.50
2018-11-23T03:04:04.151Z,0.50
2018-11-23T03:06:32.302Z,0.50
2018-11-23T03:09:00.483Z,0.50
2018-11-23T03:11:28.606Z,0.50
2018-11-23T03:13:56.806Z,0.50
2018-11-23T03:16:24.971Z,0.50
2018-11-23T03:18:53.422Z,0.50
2018-11-23T03:21:21.600Z,0.40
2018-11-23T03:23:49.722Z,0.40
2018-11-23T03:26:17.877Z,0.40
2018-11-23T03:28:46.060Z,0.40
2018-11-23T03:31:14.242Z,0.40
2018-11-23T03:33:42.418Z,0.40
2018-11-23T03:36:10.587Z,0.30
2018-11-23T03:38:38.962Z,0.40
2018-11-23T03:41:07.102Z,0.40
2018-11-23T03:43:35.275Z,0.40
2018-11-23T03:46:03.490Z,0.40
2018-11-23T03:48:31.633Z,0.40
2018-11-23T03:50:59.826Z,0.40
2018-11-23T03:53:27.985Z,0.40
2018-11-23T03:55:56.134Z,0.40
2018-11-23T03:58:24.348Z,0.40
2018-11-23T04:00:52.496Z,0.40
2018-11-23T04:03:20.665Z,0.40
2018-11-23T04:05:48.846Z,0.40
2018-11-23T04:08:16.983Z,0.30
2018-11-23T04:10:45.202Z,0.30
2018-11-23T04:13:13.382Z,0.40
2018-11-23T04:15:41.580Z,0.30
2018-11-23T04:18:09.754Z,0.30
2018-11-23T04:20:37.931Z,0.30
2018-11-23T04:23:06.139Z,0.30
2018-11-23T04:25:34.286Z,0.20
2018-11-23T04:28:02.420Z,0.20
2018-11-23T04:30:30.581Z,0.10
2018-11-23T04:32:58.991Z,0.10
2018-11-23T04:35:27.219Z,0.20
2018-11-23T04:37:55.426Z,0.10
2018-11-23T04:40:23.578Z,0.10
2018-11-23T04:42:52.037Z,0.10
2018-11-23T04:45:20.242Z,0.10
2018-11-23T04:47:48.435Z,0.10
2018-11-23T04:50:16.910Z,0.10
2018-11-23T04:52:45.248Z,0.00
2018-11-23T04:55:13.407Z,0.10
2018-11-23T04:57:42.190Z,0.10
2018-11-23T05:00:12.645Z,0.10
2018-11-23T05:02:40.862Z,0.10
2018-11-23T05:05:09.976Z,0.10
2018-11-23T05:07:38.118Z,0.10
2018-11-23T05:10:08.487Z,0.00
2018-11-23T05:12:36.653Z,0.00
2018-11-23T05:15:05.264Z,0.00
2018-11-23T05:17:33.463Z,0.10
2018-11-23T05:20:01.660Z,0.10
2018-11-23T05:22:29.806Z,0.00
2018-11-23T05:24:57.950Z,0.00
2018-11-23T05:27:26.168Z,0.10
2018-11-23T05:29:54.382Z,0.10
2018-11-23T05:32:22.578Z,0.30
2018-11-23T05:34:50.795Z,0.30
2018-11-23T05:37:19.045Z,0.30
2018-11-23T05:39:47.171Z,0.30
2018-11-23T05:42:15.341Z,0.30
2018-11-23T05:44:43.508Z,0.30
2018-11-23T05:47:11.840Z,0.40
2018-11-23T05:49:39.987Z,0.30
2018-11-23T05:52:08.158Z,0.30
2018-11-23T05:54:36.314Z,0.30
2018-11-23T05:57:04.470Z,0.30
2018-11-23T05:59:32.794Z,0.20
2018-11-23T06:02:00.922Z,0.20
2018-11-23T06:04:29.196Z,0.20
2018-11-23T06:06:57.358Z,0.20
2018-11-23T06:09:25.556Z,0.20
2018-11-23T06:11:53.678Z,0.20
2018-11-23T06:14:21.862Z,0.20
2018-11-23T06:16:50.249Z,0.10
2018-11-23T06:19:18.439Z,0.10
2018-11-23T06:21:46.615Z,0.10
2018-11-23T06:24:14.739Z,0.10
2018-11-23T06:26:42.882Z,0.00
2018-11-23T06:29:11.022Z,0.10
2018-11-23T06:31:39.234Z,0.10
2018-11-23T06:34:07.386Z,0.00
2018-11-23T06:36:35.650Z,0.10
2018-11-23T06:39:05.210Z,0.10
2018-11-23T06:41:33.398Z,0.00
2018-11-23T06:44:01.599Z,0.00
2018-11-23T06:46:29.738Z,0.00
2018-11-23T06:48:57.894Z,0.00
2018-11-23T06:51:26.018Z,-0.10
2018-11-23T06:53:54.194Z,-0.10
2018-11-23T06:56:22.394Z,0.00
2018-11-23T06:58:50.566Z,0.10
2018-11-23T07:01:18.753Z,0.10
2018-11-23T07:03:46.929Z,0.10
2018-11-23T07:06:15.148Z,0.10
2018-11-23T07:08:43.317Z,0.10
2018-11-23T07:11:11.489Z,0.00
2018-11-23T07:13:39.702Z,0.00
2018-11-23T07:16:07.854Z,-2.00
2018-11-23T07:18:36.027Z,0.00
2018-11-23T07:21:04.610Z,-0.10
2018-11-23T07:23:32.818Z,0.00
2018-11-23T07:26:00.946Z,0.10
2018-11-23T07:28:29.118Z,0.00
2018-11-23T07:31:02.131Z,-0.10
2018-11-23T07:33:25.718Z,-0.20
2018-11-23T07:35:53.888Z,-0.10
2018-11-23T07:38:22.087Z,0.00
2018-11-23T07:41:01.536Z,0.00
2018-11-23T07:43:29.682Z,0.10
2018-11-23T07:45:57.838Z,0.10
2018-11-23T07:48:25.981Z,0.20
2018-11-23T07:50:54.179Z,0.30
2018-11-23T07:53:23.145Z,0.40
2018-11-23T07:55:51.311Z,0.50
2018-11-23T07:58:19.470Z,0.50
2018-11-23T08:00:47.639Z,0.50
2018-11-23T08:03:15.855Z,0.60
2018-11-23T08:05:44.040Z,0.60
2018-11-23T08:08:12.238Z,0.70
2018-11-23T08:10:39.662Z,0.70
2018-11-23T08:13:07.851Z,0.80
2018-11-23T08:15:35.978Z,0.80
2018-11-23T08:18:04.169Z,0.90
2018-11-23T08:20:32.389Z,1.00
2018-11-23T08:23:00.534Z,1.00
2018-11-23T08:25:28.670Z,1.10
2018-11-23T08:27:57.282Z,1.10
2018-11-23T08:30:26.781Z,1.20
2018-11-23T08:32:55.207Z,1.20
2018-11-23T08:35:23.346Z,1.40
2018-11-23T08:37:51.670Z,1.40
2018-11-23T08:40:21.834Z,1.50
2018-11-23T08:42:50.847Z,1.60
2018-11-23T08:45:20.798Z,1.70
2018-11-23T08:47:48.977Z,1.70
2018-11-23T08:50:19.564Z,1.80
2018-11-23T08:52:47.731Z,1.90
2018-11-23T08:55:16.730Z,1.90
2018-11-23T08:57:44.946Z,2.00
2018-11-23T09:00:17.192Z,2.10
2018-11-23T09:02:47.567Z,2.20
2018-11-23T09:05:16.490Z,2.30
2018-11-23T09:07:45.551Z,2.40
2018-11-23T09:10:15.686Z,2.50
2018-11-23T09:12:45.215Z,2.60
2018-11-23T09:15:14.281Z,2.70
2018-11-23T09:17:43.278Z,2.80
2018-11-23T09:20:12.298Z,2.90
2018-11-23T09:22:40.482Z,3.00
2018-11-23T09:25:11.282Z,3.10
2018-11-23T09:27:39.467Z,3.20
2018-11-23T09:30:14.446Z,3.40
2018-11-23T09:32:42.974Z,3.50
2018-11-23T09:35:11.159Z,3.60
2018-11-23T09:37:40.050Z,3.70
2018-11-23T09:40:10.254Z,3.80
2018-11-23T09:42:38.939Z,3.90
2018-11-23T09:45:09.038Z,4.00
2018-11-23T09:47:37.380Z,4.10
2018-11-23T09:50:08.059Z,4.30
2018-11-23T09:52:36.198Z,4.40
2018-11-23T09:55:04.705Z,4.50
2018-11-23T09:57:32.889Z,4.60
2018-11-23T10:00:01.066Z,4.70
2018-11-23T10:02:29.434Z,4.80
2018-11-23T10:04:57.578Z,5.00
2018-11-23T10:07:25.856Z,5.10
2018-11-23T10:09:54.093Z,5.30
2018-11-23T10:12:22.306Z,5.40
2018-11-23T10:14:50.694Z,5.50
2018-11-23T10:17:18.917Z,5.60
2018-11-23T10:19:47.069Z,5.80
2018-11-23T10:22:15.285Z,5.90
2018-11-23T10:24:43.464Z,6.00
2018-11-23T10:27:11.633Z,6.10
2018-11-23T10:29:39.803Z,6.20
2018-11-23T10:32:07.950Z,6.30
2018-11-23T10:34:36.135Z,6.40
2018-11-23T10:37:04.381Z,6.50
2018-11-23T10:39:32.678Z,6.60
2018-11-23T10:42:00.898Z,6.70
2018-11-23T10:44:29.072Z,6.80
2018-11-23T10:46:57.222Z,7.00
2018-11-23T10:49:25.437Z,7.00
2018-11-23T10:51:53.628Z,7.10
2018-11-23T10:54:21.789Z,7.20
2018-11-23T10:56:49.988Z,7.20
2018-11-23T10:59:18.191Z,7.30
2018-11-23T11:01:51.721Z,7.40
2018-11-23T11:04:25.296Z,7.50
2018-11-23T11:06:54.750Z,7.50
2018-11-23T11:09:22.903Z,7.70
2018-11-23T11:11:51.078Z,7.70
2018-11-23T11:14:19.281Z,7.80
2018-11-23T11:16:47.417Z,7.90
2018-11-23T11:19:15.578Z,8.10
2018-11-23T11:21:43.762Z,8.10
2018-11-23T11:24:11.933Z,8.10
2018-11-23T11:26:40.098Z,8.20
2018-11-23T11:29:08.274Z,8.30
2018-11-23T11:31:36.428Z,8.30
2018-11-23T11:34:04.872Z,8.40
2018-11-23T11:36:33.079Z,8.40
2018-11-23T11:39:01.238Z,8.50
2018-11-23T11:41:29.370Z,8.60
2018-11-23T11:43:57.559Z,8.70
2018-11-23T11:46:25.735Z,8.80
2018-11-23T11:48:53.940Z,8.90
2018-11-23T11:51:22.162Z,8.90
2018-11-23T11:53:50.318Z,9.10
2018-11-23T11:56:18.878Z,9.10
2018-11-23T11:58:47.094Z,9.20
2018-11-23T12:01:15.262Z,9.20
2018-11-23T12:03:43.556Z,9.20
2018-11-23T12:06:11.727Z,9.30
2018-11-23T12:08:39.866Z,9.40
2018-11-23T12:11:07.996Z,9.50
2018-11-23T12:13:36.249Z,9.50
2018-11-23T12:16:04.374Z,9.50
2018-11-23T12:18:32.525Z,9.40
2018-11-23T12:21:00.674Z,9.50
2018-11-23T12:23:28.822Z,9.50
2018-11-23T12:25:57.010Z,9.50
2018-11-23T12:28:25.186Z,9.60
2018-11-23T12:30:53.411Z,9.60
2018-11-23T12:33:21.610Z,9.70
2018-11-23T12:35:50.175Z,9.80
2018-11-23T12:38:18.335Z,9.90
2018-11-23T12:40:46.495Z,10.00
2018-11-23T12:43:14.686Z,10.10
2018-11-23T12:45:42.870Z,10.30
2018-11-23T12:48:11.011Z,10.30
2018-11-23T12:50:39.172Z,10.40
2018-11-23T12:53:07.615Z,10.40
2018-11-23T12:55:35.749Z,10.40
2018-11-23T12:58:03.908Z,10.40
2018-11-23T13:00:32.104Z,10.40
2018-11-23T13:03:01.524Z,10.40
2018-11-23T13:05:30.936Z,10.40
2018-11-23T13:08:00.459Z,10.30
2018-11-23T13:10:28.986Z,10.30
2018-11-23T13:12:57.752Z,10.20
2018-11-23T13:15:25.925Z,10.40
2018-11-23T13:17:54.474Z,10.40
2018-11-23T13:20:22.711Z,10.80
2018-11-23T13:22:50.821Z,11.10
2018-11-23T13:25:21.559Z,11.40
2018-11-23T13:27:49.702Z,11.50
2018-11-23T13:30:20.054Z,11.90
2018-11-23T13:32:48.224Z,12.20
2018-11-23T13:35:17.407Z,12.20
2018-11-23T13:37:45.572Z,12.10
2018-11-23T13:40:15.548Z,11.70
2018-11-23T13:42:43.973Z,11.40
2018-11-23T13:45:13.387Z,11.00
2018-11-23T13:47:41.783Z,10.70
2018-11-23T13:50:12.014Z,10.50
2018-11-23T13:52:40.608Z,10.30
2018-11-23T13:55:08.850Z,10.10
2018-11-23T13:57:37.381Z,10.10
2018-11-23T14:00:09.678Z,9.90
2018-11-23T14:02:37.841Z,9.90
2018-11-23T14:05:08.964Z,9.70
2018-11-23T14:07:37.194Z,9.70
2018-11-23T14:10:08.206Z,9.60
2018-11-23T14:12:36.379Z,9.40
2018-11-23T14:15:05.288Z,9.30
2018-11-23T14:17:33.446Z,9.30
2018-11-23T14:20:01.583Z,9.20
2018-11-23T14:22:29.727Z,9.10
2018-11-23T14:24:57.910Z,9.10
2018-11-23T14:27:26.103Z,9.00
2018-11-23T14:29:54.272Z,9.00
2018-11-23T14:32:22.445Z,8.90
2018-11-23T14:34:50.624Z,8.80
2018-11-23T14:37:18.839Z,8.70
2018-11-23T14:39:46.994Z,8.60
2018-11-23T14:42:15.166Z,8.60
2018-11-23T14:44:43.342Z,8.50
2018-11-23T14:47:11.522Z,8.50
2018-11-23T14:49:39.746Z,8.40
2018-11-23T14:52:07.958Z,8.40
2018-11-23T14:54:36.612Z,8.30
2018-11-23T14:57:04.383Z,8.30
2018-11-23T14:59:32.802Z,8.40
2018-11-23T15:02:00.977Z,8.40
2018-11-23T15:04:29.158Z,8.40
2018-11-23T15:06:57.331Z,8.40
2018-11-23T15:09:25.521Z,8.30
2018-11-23T15:11:53.666Z,8.30
2018-11-23T15:14:21.843Z,8.20
2018-11-23T15:16:49.979Z,8.10
2018-11-23T15:19:18.311Z,8.10
2018-11-23T15:21:47.008Z,8.00
2018-11-23T15:24:15.154Z,8.00
2018-11-23T15:26:43.321Z,8.00
2018-11-23T15:29:11.492Z,7.90
2018-11-23T15:31:40.014Z,7.90
2018-11-23T15:34:08.226Z,7.90
2018-11-23T15:36:36.398Z,7.80
2018-11-23T15:39:08.164Z,7.70
2018-11-23T15:41:36.342Z,7.70
2018-11-23T15:44:05.217Z,7.70
2018-11-23T15:46:33.386Z,7.70
2018-11-23T15:49:01.605Z,7.70
2018-11-23T15:51:29.758Z,7.60
2018-11-23T15:53:57.921Z,7.60
2018-11-23T15:56:26.138Z,7.70
2018-11-23T15:58:54.361Z,7.60
2018-11-23T16:01:22.534Z,7.60
2018-11-23T16:03:50.726Z,7.50
2018-11-23T16:06:18.910Z,7.40
2018-11-23T16:08:47.103Z,7.40
2018-11-23T16:11:15.275Z,7.40
2018-11-23T16:13:43.426Z,7.30
2018-11-23T16:16:11.570Z,7.30
2018-11-23T16:18:39.750Z,7.30
2018-11-23T16:21:07.935Z,7.30
2018-11-23T16:23:36.121Z,7.20
2018-11-23T16:26:04.322Z,7.20
2018-11-23T16:28:32.513Z,7.20
2018-11-23T16:31:00.686Z,7.10
2018-11-23T16:33:28.851Z,7.10
2018-11-23T16:35:57.021Z,7.00
2018-11-23T16:38:25.370Z,7.00
2018-11-23T16:40:55.627Z,6.90
2018-11-23T16:43:23.850Z,6.90
2018-11-23T16:45:52.622Z,6.80
2018-11-23T16:48:21.920Z,6.80
2018-11-23T16:50:50.070Z,6.70
2018-11-23T16:53:18.284Z,6.70
2018-11-23T16:55:50.747Z,6.60
2018-11-23T16:58:19.113Z,6.60
2018-11-23T17:00:48.060Z,6.50
2018-11-23T17:03:17.829Z,6.50
2018-11-23T17:05:47.554Z,6.50
2018-11-23T17:08:15.912Z,6.40
2018-11-23T17:10:44.089Z,6.30
2018-11-23T17:13:12.239Z,6.20
2018-11-23T17:15:40.514Z,6.20
2018-11-23T17:18:08.918Z,6.20
2018-11-23T17:20:37.703Z,6.10
2018-11-23T17:23:07.209Z,6.10
2018-11-23T17:25:35.746Z,6.00
2018-11-23T17:28:05.418Z,5.90
2018-11-23T17:30:34.402Z,5.90
2018-11-23T17:33:02.662Z,5.90
2018-11-23T17:35:31.239Z,5.80
2018-11-23T17:37:59.400Z,5.70
2018-11-23T17:40:29.030Z,5.70
2018-11-23T17:42:58.439Z,5.70
2018-11-23T17:45:27.531Z,5.80
2018-11-23T17:47:56.010Z,5.70
2018-11-23T17:50:25.626Z,5.70
2018-11-23T17:52:54.294Z,5.60
2018-11-23T17:55:22.778Z,5.50
2018-11-23T17:57:51.762Z,5.50
2018-11-23T18:00:22.638Z,5.40
2018-11-23T18:02:51.706Z,5.40
2018-11-23T18:05:20.667Z,5.40
2018-11-23T18:07:49.294Z,5.30
2018-11-23T18:10:19.030Z,5.30
2018-11-23T18:12:47.704Z,5.30
2018-11-23T18:15:18.422Z,5.30
2018-11-23T18:17:47.139Z,5.30
2018-11-23T18:20:17.742Z,5.20
2018-11-23T18:22:46.630Z,5.20
2018-11-23T18:25:17.362Z,5.20
2018-11-23T18:27:46.028Z,5.20
2018-11-23T18:30:15.146Z,5.10
2018-11-23T18:32:43.414Z,5.10
2018-11-23T18:35:12.827Z,5.00
2018-11-23T18:37:41.173Z,5.00
2018-11-23T18:40:11.419Z,5.00
2018-11-23T18:42:39.710Z,5.00
2018-11-23T18:45:11.022Z,4.90
2018-11-23T18:47:39.218Z,4.90
2018-11-23T18:50:09.831Z,4.90
2018-11-23T18:52:37.998Z,4.90
2018-11-23T18:55:06.859Z,5.00
2018-11-23T18:57:35.350Z,5.00
2018-11-23T19:00:03.702Z,5.00
2018-11-23T19:02:31.894Z,4.90
2018-11-23T19:05:00.043Z,4.80
2018-11-23T19:07:28.218Z,4.90
2018-11-23T19:09:57.337Z,4.90
2018-11-23T19:12:25.580Z,4.90
2018-11-23T19:14:54.767Z,4.90
2018-11-23T19:17:22.938Z,4.90
2018-11-23T19:19:51.135Z,4.80
2018-11-23T19:22:19.831Z,4.80
2018-11-23T19:24:48.304Z,4.80
2018-11-23T19:27:16.651Z,4.80
2018-11-23T19:29:44.859Z,4.70
2018-11-23T19:32:13.397Z,4.70
2018-11-23T19:34:41.630Z,4.70
2018-11-23T19:37:09.809Z,4.70
2018-11-23T19:39:38.095Z,4.70
2018-11-23T19:42:07.365Z,4.60
2018-11-23T19:44:36.409Z,4.70
2018-11-23T19:47:05.331Z,4.70
2018-11-23T19:49:34.596Z,4.70
2018-11-23T19:52:04.173Z,4.60
2018-11-23T19:54:34.149Z,4.70
2018-11-23T19:57:02.541Z,4.60
2018-11-23T19:59:31.824Z,4.60
2018-11-23T20:02:00.077Z,4.60
2018-11-23T20:04:28.780Z,4.60
2018-11-23T20:06:57.995Z,4.60
2018-11-23T20:09:26.380Z,4.60
2018-11-23T20:11:54.693Z,4.60
2018-11-23T20:14:22.882Z,4.50
2018-11-23T20:16:51.054Z,4.50
2018-11-23T20:19:19.218Z,4.50
2018-11-23T20:21:47.374Z,4.40
2018-11-23T20:24:15.591Z,4.40
2018-11-23T20:26:44.950Z,4.40
2018-11-23T20:29:13.315Z,4.40
2018-11-23T20:31:41.482Z,4.30
2018-11-23T20:34:09.670Z,4.40
2018-11-23T20:36:37.895Z,4.40
2018-11-23T20:39:08.723Z,4.40
2018-11-23T20:41:37.632Z,4.50
2018-11-23T20:44:06.652Z,4.50
2018-11-23T20:46:35.247Z,4.40
2018-11-23T20:49:03.490Z,4.40
2018-11-23T20:51:31.619Z,4.40
2018-11-23T20:53:59.809Z,4.40
2018-11-23T20:56:27.966Z,4.40
2018-11-23T20:58:56.193Z,4.40
2018-11-23T21:01:24.534Z,4.40
2018-11-23T21:03:52.747Z,4.30
2018-11-23T21:06:20.969Z,4.30
2018-11-23T21:08:49.138Z,4.30
2018-11-23T21:11:17.338Z,4.40
2018-11-23T21:13:45.479Z,4.40
2018-11-23T21:16:13.669Z,4.40
2018-11-23T21:18:41.826Z,4.40
2018-11-23T21:21:09.983Z,4.50
2018-11-23T21:23:38.198Z,4.40
2018-11-23T21:26:06.346Z,4.40
2018-11-23T21:28:34.573Z,4.40
2018-11-23T21:31:02.786Z,4.50
2018-11-23T21:33:30.946Z,4.50
2018-11-23T21:35:59.111Z,4.40
2018-11-23T21:38:27.527Z,4.30
2018-11-23T21:40:55.718Z,4.40
2018-11-23T21:43:23.891Z,4.30
2018-11-23T21:45:52.113Z,4.30
2018-11-23T21:48:20.316Z,4.30
2018-11-23T21:50:48.512Z,4.20
2018-11-23T21:53:16.707Z,4.30
2018-11-23T21:55:44.851Z,4.30
2018-11-23T21:58:13.150Z,4.30
2018-11-23T22:00:41.318Z,4.20
2018-11-23T22:03:09.592Z,4.20
2018-11-23T22:05:37.743Z,4.20
2018-11-23T22:08:06.111Z,4.20
2018-11-23T22:10:34.288Z,4.20
2018-11-23T22:13:02.434Z,4.30
2018-11-23T22:15:30.610Z,4.20
2018-11-23T22:17:58.800Z,4.20
2018-11-23T22:20:26.969Z,4.20
2018-11-23T22:22:55.132Z,4.20
2018-11-23T22:25:23.619Z,4.20
2018-11-23T22:27:51.835Z,4.20
2018-11-23T22:30:23.642Z,4.20
2018-11-23T22:32:51.775Z,4.20
2018-11-23T22:35:20.000Z,4.20
2018-11-23T22:37:48.112Z,4.20
2018-11-23T22:40:18.120Z,4.10
2018-11-23T22:42:47.662Z,4.20
2018-11-23T22:45:16.447Z,4.20
2018-11-23T22:47:44.599Z,4.20
2018-11-23T22:50:14.038Z,4.10
2018-11-23T22:52:42.171Z,4.10
2018-11-23T22:55:12.462Z,4.10
2018-11-23T22:57:40.591Z,4.10
2018-11-23T23:00:12.059Z,4.10
2018-11-23T23:02:40.278Z,4.10
2018-11-23T23:05:08.541Z,4.10
2018-11-23T23:07:36.703Z,4.20
2018-11-23T23:10:05.311Z,4.20
2018-11-23T23:12:33.481Z,4.20
2018-11-23T23:15:01.675Z,4.20
2018-11-23T23:17:29.856Z,4.10
2018-11-23T23:19:58.002Z,4.10
2018-11-23T23:22:26.220Z,4.10
2018-11-23T23:24:54.414Z,4.10
2018-11-23T23:27:22.586Z,4.10
2018-11-23T23:29:50.706Z,4.10
2018-11-23T23:32:18.840Z,4.10
2018-11-23T23:34:47.041Z,4.10
2018-11-23T23:37:15.226Z,4.10
2018-11-23T23:39:43.378Z,4.10
2018-11-23T23:42:11.558Z,4.10
2018-11-23T23:44:39.798Z,4.10
2018-11-23T23:47:07.962Z,4.10
2018-11-23T23:49:36.091Z,4.10
2018-11-23T23:52:04.287Z,4.10
2018-11-23T23:54:32.503Z,4.20
2018-11-23T23:57:00.687Z,4.10
2018-11-23T23:59:28.836Z,4.10
